sensor_id;sensor_type;location;lat;lon;timestamp;P1;durP1;ratioP1;P2;durP2;ratioP2
6902;SDS011;20232;49.408;8.702;2023-11-18T05:00:30;18.23;;;12.97;;
6902;SDS011;20232;49.408;8.702;2023-11-18T05:02:59;22.37;;;13.27;;
6902;SDS011;20232;49.408;8.702;2023-11-18T05:05:24;18.40;;;11.67;;
6902;SDS011;20232;49.408;8.702;2023-11-18T05:07:49;17.60;;;11.50;;
6902;SDS011;20232;49.408;8.702;2023-11-18T05:10:15;17.83;;;11.93;;
6902;SDS011;20232;49.408;8.702;2023-11-18T05:12:40;18.20;;;11.53;;
6902;SDS011;20232;49.408;8.702;2023-11-18T05:15:08;17.07;;;12.03;;
6902;SDS011;20232;49.408;8.702;2023-11-18T05:17:35;20.60;;;12.07;;
6902;SDS011;20232;49.408;8.702;2023-11-18T05:20:04;16.70;;;11.47;;
6902;SDS011;20232;49.408;8.702;2023-11-18T05:22:30;14.87;;;10.93;;
6902;SDS011;20232;49.408;8.702;2023-11-18T05:24:56;17.47;;;11.53;;
6902;SDS011;20232;49.408;8.702;2023-11-18T05:27:22;17.43;;;10.63;;
6902;SDS011;20232;49.408;8.702;2023-11-18T05:29:47;14.03;;;10.23;;
6902;SDS011;20232;49.408;8.702;2023-11-18T05:32:19;17.30;;;10.73;;
6902;SDS011;20232;49.408;8.702;2023-11-18T05:34:48;14.17;;;11.03;;
6902;SDS011;20232;49.408;8.702;2023-11-18T05:37:15;15.30;;;10.87;;
6902;SDS011;20232;49.408;8.702;2023-11-18T05:39:43;15.87;;;11.33;;
6902;SDS011;20232;49.408;8.702;2023-11-18T05:42:10;18.80;;;12.53;;
6902;SDS011;20232;49.408;8.702;2023-11-18T05:44:36;17.87;;;12.13;;
6902;SDS011;20232;49.408;8.702;2023-11-18T05:47:04;18.83;;;13.70;;
6902;SDS011;20232;49.408;8.702;2023-11-18T05:49:30;17.30;;;12.63;;
6902;SDS011;20232;49.408;8.702;2023-11-18T05:51:56;18.67;;;12.83;;
6902;SDS011;20232;49.408;8.702;2023-11-18T05:54:22;19.67;;;12.43;;
6902;SDS011;20232;49.408;8.702;2023-11-18T05:56:47;17.30;;;12.23;;
6902;SDS011;20232;49.408;8.702;2023-11-18T05:59:12;24.17;;;13.37;;
6902;SDS011;20232;49.408;8.702;2023-11-18T06:01:38;18.37;;;13.20;;
6902;SDS011;20232;49.408;8.702;2023-11-18T06:04:05;18.67;;;13.33;;
6902;SDS011;20232;49.408;8.702;2023-11-18T06:06:33;19.43;;;13.27;;
6902;SDS011;20232;49.408;8.702;2023-11-18T06:08:58;16.63;;;12.43;;
6902;SDS011;20232;49.408;8.702;2023-11-18T06:11:29;26.23;;;12.50;;
6902;SDS011;20232;49.408;8.702;2023-11-18T06:13:56;23.60;;;14.13;;
6902;SDS011;20232;49.408;8.702;2023-11-18T06:16:23;17.53;;;12.90;;
6902;SDS011;20232;49.408;8.702;2023-11-18T06:18:50;17.90;;;12.90;;
6902;SDS011;20232;49.408;8.702;2023-11-18T06:21:17;19.50;;;12.73;;
6902;SDS011;20232;49.408;8.702;2023-11-18T06:23:44;18.60;;;12.73;;
6902;SDS011;20232;49.408;8.702;2023-11-18T06:26:13;21.47;;;13.90;;
6902;SDS011;20232;49.408;8.702;2023-11-18T06:28:40;17.63;;;12.10;;
6902;SDS011;20232;49.408;8.702;2023-11-18T06:31:06;19.30;;;13.17;;
6902;SDS011;20232;49.408;8.702;2023-11-18T06:33:52;21.80;;;13.13;;
6902;SDS011;20232;49.408;8.702;2023-11-18T06:36:18;20.03;;;13.13;;
6902;SDS011;20232;49.408;8.702;2023-11-18T06:38:46;19.27;;;12.47;;
6902;SDS011;20232;49.408;8.702;2023-11-18T06:41:15;16.87;;;12.30;;
6902;SDS011;20232;49.408;8.702;2023-11-18T06:43:42;19.57;;;13.07;;
6902;SDS011;20232;49.408;8.702;2023-11-18T06:46:21;19.77;;;13.27;;
6902;SDS011;20232;49.408;8.702;2023-11-18T06:49:02;20.50;;;13.00;;
6902;SDS011;20232;49.408;8.702;2023-11-18T06:51:32;19.13;;;13.40;;
6902;SDS011;20232;49.408;8.702;2023-11-18T06:54:00;19.70;;;14.07;;
6902;SDS011;20232;49.408;8.702;2023-11-18T06:56:27;20.30;;;13.53;;
6902;SDS011;20232;49.408;8.702;2023-11-18T06:58:53;20.37;;;13.73;;
6902;SDS011;20232;49.408;8.702;2023-11-18T07:01:19;19.60;;;13.40;;
6902;SDS011;20232;49.408;8.702;2023-11-18T07:03:45;20.57;;;13.23;;
6902;SDS011;20232;49.408;8.702;2023-11-18T07:06:16;21.60;;;14.13;;
6902;SDS011;20232;49.408;8.702;2023-11-18T07:08:47;21.30;;;13.57;;
6902;SDS011;20232;49.408;8.702;2023-11-18T07:11:15;20.77;;;12.33;;
6902;SDS011;20232;49.408;8.702;2023-11-18T07:13:42;20.40;;;13.97;;
6902;SDS011;20232;49.408;8.702;2023-11-18T07:16:08;21.67;;;14.87;;
6902;SDS011;20232;49.408;8.702;2023-11-18T07:18:37;19.73;;;14.13;;
6902;SDS011;20232;49.408;8.702;2023-11-18T07:21:03;20.40;;;14.20;;
6902;SDS011;20232;49.408;8.702;2023-11-18T07:23:30;21.53;;;15.13;;
6902;SDS011;20232;49.408;8.702;2023-11-18T07:25:56;19.77;;;14.33;;
6902;SDS011;20232;49.408;8.702;2023-11-18T07:28:22;21.17;;;14.77;;
6902;SDS011;20232;49.408;8.702;2023-11-18T07:30:48;23.13;;;15.87;;
6902;SDS011;20232;49.408;8.702;2023-11-18T07:33:16;21.80;;;14.33;;
6902;SDS011;20232;49.408;8.702;2023-11-18T07:35:42;21.97;;;13.80;;
6902;SDS011;20232;49.408;8.702;2023-11-18T07:38:08;20.63;;;14.70;;
6902;SDS011;20232;49.408;8.702;2023-11-18T07:40:34;16.30;;;12.70;;
6902;SDS011;20232;49.408;8.702;2023-11-18T07:43:00;15.57;;;11.70;;
6902;SDS011;20232;49.408;8.702;2023-11-18T07:45:28;17.00;;;11.63;;
6902;SDS011;20232;49.408;8.702;2023-11-18T07:47:59;18.60;;;11.97;;
6902;SDS011;20232;49.408;8.702;2023-11-18T07:50:24;18.07;;;12.57;;
6902;SDS011;20232;49.408;8.702;2023-11-18T07:52:50;17.20;;;11.87;;
6902;SDS011;20232;49.408;8.702;2023-11-18T07:55:15;15.83;;;11.73;;
6902;SDS011;20232;49.408;8.702;2023-11-18T07:57:41;18.57;;;12.50;;
6902;SDS011;20232;49.408;8.702;2023-11-18T08:00:07;19.23;;;12.67;;
6902;SDS011;20232;49.408;8.702;2023-11-18T08:02:39;17.83;;;11.90;;
6902;SDS011;20232;49.408;8.702;2023-11-18T08:05:05;14.53;;;11.70;;
6902;SDS011;20232;49.408;8.702;2023-11-18T08:07:34;16.50;;;12.50;;
6902;SDS011;20232;49.408;8.702;2023-11-18T08:10:01;17.87;;;12.20;;
6902;SDS011;20232;49.408;8.702;2023-11-18T08:12:29;17.13;;;12.00;;
6902;SDS011;20232;49.408;8.702;2023-11-18T08:14:57;19.20;;;12.67;;
6902;SDS011;20232;49.408;8.702;2023-11-18T08:17:24;18.70;;;13.07;;
6902;SDS011;20232;49.408;8.702;2023-11-18T08:19:50;19.23;;;12.33;;
6902;SDS011;20232;49.408;8.702;2023-11-18T08:22:19;17.97;;;12.47;;
6902;SDS011;20232;49.408;8.702;2023-11-18T08:24:44;15.80;;;11.40;;
6902;SDS011;20232;49.408;8.702;2023-11-18T08:27:11;15.90;;;11.87;;
6902;SDS011;20232;49.408;8.702;2023-11-18T08:29:36;16.67;;;11.40;;
6902;SDS011;20232;49.408;8.702;2023-11-18T08:32:04;14.37;;;10.40;;
6902;SDS011;20232;49.408;8.702;2023-11-18T08:34:31;13.17;;;10.40;;
6902;SDS011;20232;49.408;8.702;2023-11-18T08:36:58;12.87;;;9.77;;
6902;SDS011;20232;49.408;8.702;2023-11-18T08:39:24;16.03;;;9.60;;
6902;SDS011;20232;49.408;8.702;2023-11-18T08:41:51;12.77;;;8.57;;
6902;SDS011;20232;49.408;8.702;2023-11-18T08:44:16;12.83;;;9.10;;
6902;SDS011;20232;49.408;8.702;2023-11-18T08:46:42;14.13;;;9.07;;
6902;SDS011;20232;49.408;8.702;2023-11-18T08:49:08;10.30;;;8.50;;
6902;SDS011;20232;49.408;8.702;2023-11-18T08:51:36;11.53;;;9.37;;
6902;SDS011;20232;49.408;8.702;2023-11-18T08:54:02;10.10;;;8.97;;
6902;SDS011;20232;49.408;8.702;2023-11-18T08:56:47;13.80;;;9.73;;
6902;SDS011;20232;49.408;8.702;2023-11-18T08:59:17;18.43;;;11.03;;
6902;SDS011;20232;49.408;8.702;2023-11-18T09:01:53;15.57;;;10.00;;
6902;SDS011;20232;49.408;8.702;2023-11-18T09:04:27;13.97;;;9.70;;
6902;SDS011;20232;49.408;8.702;2023-11-18T09:06:53;16.00;;;9.87;;
6902;SDS011;20232;49.408;8.702;2023-11-18T09:09:19;14.70;;;9.73;;
6902;SDS011;20232;49.408;8.702;2023-11-18T09:11:52;13.03;;;9.67;;
6902;SDS011;20232;49.408;8.702;2023-11-18T09:14:19;14.33;;;9.27;;
6902;SDS011;20232;49.408;8.702;2023-11-18T09:16:45;13.43;;;9.53;;
6902;SDS011;20232;49.408;8.702;2023-11-18T09:19:10;14.93;;;9.57;;
6902;SDS011;20232;49.408;8.702;2023-11-18T09:21:36;9.67;;;8.17;;
6902;SDS011;20232;49.408;8.702;2023-11-18T09:24:01;14.77;;;8.23;;
6902;SDS011;20232;49.408;8.702;2023-11-18T09:26:33;10.73;;;8.00;;
6902;SDS011;20232;49.408;8.702;2023-11-18T09:28:58;9.87;;;7.50;;
6902;SDS011;20232;49.408;8.702;2023-11-18T09:31:26;9.90;;;7.60;;
6902;SDS011;20232;49.408;8.702;2023-11-18T09:33:52;11.23;;;7.07;;
6902;SDS011;20232;49.408;8.702;2023-11-18T09:36:18;10.77;;;7.60;;
6902;SDS011;20232;49.408;8.702;2023-11-18T09:38:44;9.27;;;7.50;;
6902;SDS011;20232;49.408;8.702;2023-11-18T09:41:12;8.60;;;7.00;;
6902;SDS011;20232;49.408;8.702;2023-11-18T09:43:38;7.70;;;6.53;;
6902;SDS011;20232;49.408;8.702;2023-11-18T09:46:13;9.33;;;6.70;;
6902;SDS011;20232;49.408;8.702;2023-11-18T09:48:49;9.17;;;6.20;;
6902;SDS011;20232;49.408;8.702;2023-11-18T09:51:24;8.90;;;6.17;;
6902;SDS011;20232;49.408;8.702;2023-11-18T09:53:55;11.77;;;6.00;;
6902;SDS011;20232;49.408;8.702;2023-11-18T10:02:00;10.27;;;5.27;;
6902;SDS011;20232;49.408;8.702;2023-11-18T10:04:29;9.20;;;5.60;;
6902;SDS011;20232;49.408;8.702;2023-11-18T10:06:56;6.40;;;5.23;;
6902;SDS011;20232;49.408;8.702;2023-11-18T10:09:26;9.77;;;5.00;;
6902;SDS011;20232;49.408;8.702;2023-11-18T10:12:02;10.53;;;5.37;;
6902;SDS011;20232;49.408;8.702;2023-11-18T10:14:37;9.97;;;4.07;;
6902;SDS011;20232;49.408;8.702;2023-11-18T10:17:06;6.10;;;4.70;;
6902;SDS011;20232;49.408;8.702;2023-11-18T10:22:28;12.80;;;5.47;;
6902;SDS011;20232;49.408;8.702;2023-11-18T10:24:54;11.40;;;6.20;;
6902;SDS011;20232;49.408;8.702;2023-11-18T10:27:24;8.10;;;5.27;;
6902;SDS011;20232;49.408;8.702;2023-11-18T10:29:50;16.37;;;5.63;;
6902;SDS011;20232;49.408;8.702;2023-11-18T10:32:20;6.93;;;5.00;;
6902;SDS011;20232;49.408;8.702;2023-11-18T10:34:50;5.40;;;4.33;;
6902;SDS011;20232;49.408;8.702;2023-11-18T10:37:16;3.73;;;3.43;;
6902;SDS011;20232;49.408;8.702;2023-11-18T10:39:44;4.00;;;3.30;;
6902;SDS011;20232;49.408;8.702;2023-11-18T10:42:11;4.93;;;3.30;;
6902;SDS011;20232;49.408;8.702;2023-11-18T10:44:37;5.43;;;3.30;;
6902;SDS011;20232;49.408;8.702;2023-11-18T10:47:02;3.57;;;3.17;;
6902;SDS011;20232;49.408;8.702;2023-11-18T10:49:28;4.50;;;2.97;;
6902;SDS011;20232;49.408;8.702;2023-11-18T10:51:55;5.93;;;3.03;;
6902;SDS011;20232;49.408;8.702;2023-11-18T10:54:21;9.53;;;3.70;;
6902;SDS011;20232;49.408;8.702;2023-11-18T10:56:47;16.33;;;3.97;;
6902;SDS011;20232;49.408;8.702;2023-11-18T10:59:16;5.90;;;3.00;;
6902;SDS011;20232;49.408;8.702;2023-11-18T11:01:42;10.48;;;3.38;;
6902;SDS011;20232;49.408;8.702;2023-11-18T11:04:09;10.90;;;3.17;;
6902;SDS011;20232;49.408;8.702;2023-11-18T11:06:42;5.63;;;2.90;;
6902;SDS011;20232;49.408;8.702;2023-11-18T11:09:11;4.07;;;2.70;;
6902;SDS011;20232;49.408;8.702;2023-11-18T11:11:49;11.70;;;4.00;;
6902;SDS011;20232;49.408;8.702;2023-11-18T11:14:15;6.53;;;3.00;;
6902;SDS011;20232;49.408;8.702;2023-11-18T11:16:44;16.23;;;3.97;;
6902;SDS011;20232;49.408;8.702;2023-11-18T11:19:29;3.27;;;2.53;;
6902;SDS011;20232;49.408;8.702;2023-11-18T11:22:05;4.73;;;3.30;;
6902;SDS011;20232;49.408;8.702;2023-11-18T11:24:36;9.77;;;3.20;;
6902;SDS011;20232;49.408;8.702;2023-11-18T11:30:21;3.50;;;2.90;;
6902;SDS011;20232;49.408;8.702;2023-11-18T11:32:52;8.20;;;3.40;;
6902;SDS011;20232;49.408;8.702;2023-11-18T11:35:22;5.97;;;3.40;;
6902;SDS011;20232;49.408;8.702;2023-11-18T11:37:48;7.23;;;3.00;;
6902;SDS011;20232;49.408;8.702;2023-11-18T11:40:14;8.63;;;4.00;;
6902;SDS011;20232;49.408;8.702;2023-11-18T11:42:47;4.33;;;3.10;;
6902;SDS011;20232;49.408;8.702;2023-11-18T11:45:15;4.10;;;3.57;;
6902;SDS011;20232;49.408;8.702;2023-11-18T11:47:48;7.57;;;3.63;;
6902;SDS011;20232;49.408;8.702;2023-11-18T11:50:22;5.53;;;3.00;;
6902;SDS011;20232;49.408;8.702;2023-11-18T11:52:59;4.30;;;3.03;;
6902;SDS011;20232;49.408;8.702;2023-11-18T11:55:37;6.47;;;3.17;;
6902;SDS011;20232;49.408;8.702;2023-11-18T11:58:31;7.23;;;3.27;;
6902;SDS011;20232;49.408;8.702;2023-11-18T12:00:59;10.33;;;3.87;;
6902;SDS011;20232;49.408;8.702;2023-11-18T12:03:26;5.40;;;3.03;;
6902;SDS011;20232;49.408;8.702;2023-11-18T12:05:54;6.40;;;3.00;;
6902;SDS011;20232;49.408;8.702;2023-11-18T12:08:21;3.87;;;3.17;;
6902;SDS011;20232;49.408;8.702;2023-11-18T12:10:50;5.07;;;3.80;;
6902;SDS011;20232;49.408;8.702;2023-11-18T12:13:17;4.13;;;3.30;;
6902;SDS011;20232;49.408;8.702;2023-11-18T12:15:54;10.07;;;4.00;;
6902;SDS011;20232;49.408;8.702;2023-11-18T12:18:23;8.07;;;3.60;;
6902;SDS011;20232;49.408;8.702;2023-11-18T12:20:49;18.27;;;4.20;;
6902;SDS011;20232;49.408;8.702;2023-11-18T12:23:22;5.17;;;2.73;;
6902;SDS011;20232;49.408;8.702;2023-11-18T12:25:52;10.50;;;3.10;;
6902;SDS011;20232;49.408;8.702;2023-11-18T12:28:29;9.40;;;3.27;;
6902;SDS011;20232;49.408;8.702;2023-11-18T12:31:02;8.87;;;3.73;;
6902;SDS011;20232;49.408;8.702;2023-11-18T12:36:23;7.87;;;2.90;;
6902;SDS011;20232;49.408;8.702;2023-11-18T12:39:26;7.97;;;3.20;;
6902;SDS011;20232;49.408;8.702;2023-11-18T12:42:06;4.03;;;2.43;;
6902;SDS011;20232;49.408;8.702;2023-11-18T12:47:42;4.47;;;2.73;;
6902;SDS011;20232;49.408;8.702;2023-11-18T12:50:09;6.43;;;2.90;;
6902;SDS011;20232;49.408;8.702;2023-11-18T12:52:42;16.00;;;3.13;;
6902;SDS011;20232;49.408;8.702;2023-11-18T12:55:09;3.27;;;2.30;;
6902;SDS011;20232;49.408;8.702;2023-11-18T12:57:47;1.93;;;1.83;;
6902;SDS011;20232;49.408;8.702;2023-11-18T13:00:16;10.07;;;3.00;;
6902;SDS011;20232;49.408;8.702;2023-11-18T13:02:52;6.57;;;2.23;;
6902;SDS011;20232;49.408;8.702;2023-11-18T13:05:22;5.13;;;2.80;;
6902;SDS011;20232;49.408;8.702;2023-11-18T13:07:48;17.13;;;2.93;;
6902;SDS011;20232;49.408;8.702;2023-11-18T13:10:17;8.43;;;2.80;;
6902;SDS011;20232;49.408;8.702;2023-11-18T13:12:43;10.70;;;2.67;;
6902;SDS011;20232;49.408;8.702;2023-11-18T13:15:10;4.97;;;2.83;;
6902;SDS011;20232;49.408;8.702;2023-11-18T13:17:38;6.47;;;1.80;;
6902;SDS011;20232;49.408;8.702;2023-11-18T13:20:14;3.20;;;1.80;;
6902;SDS011;20232;49.408;8.702;2023-11-18T13:22:41;10.03;;;2.10;;
6902;SDS011;20232;49.408;8.702;2023-11-18T13:25:07;3.33;;;1.80;;
6902;SDS011;20232;49.408;8.702;2023-11-18T13:27:32;3.90;;;1.97;;
6902;SDS011;20232;49.408;8.702;2023-11-18T13:29:58;5.97;;;2.67;;
6902;SDS011;20232;49.408;8.702;2023-11-18T13:32:23;4.10;;;2.20;;
6902;SDS011;20232;49.408;8.702;2023-11-18T13:34:51;3.97;;;2.33;;
6902;SDS011;20232;49.408;8.702;2023-11-18T13:37:16;5.10;;;2.13;;
6902;SDS011;20232;49.408;8.702;2023-11-18T13:39:43;3.07;;;2.10;;
6902;SDS011;20232;49.408;8.702;2023-11-18T13:42:18;4.97;;;2.00;;
6902;SDS011;20232;49.408;8.702;2023-11-18T13:44:45;7.80;;;2.73;;
6902;SDS011;20232;49.408;8.702;2023-11-18T13:47:11;6.70;;;2.60;;
6902;SDS011;20232;49.408;8.702;2023-11-18T13:49:37;2.93;;;2.03;;
6902;SDS011;20232;49.408;8.702;2023-11-18T13:52:05;3.70;;;2.07;;
6902;SDS011;20232;49.408;8.702;2023-11-18T13:54:34;6.97;;;2.30;;
6902;SDS011;20232;49.408;8.702;2023-11-18T13:57:00;4.67;;;1.77;;
6902;SDS011;20232;49.408;8.702;2023-11-18T13:59:26;3.20;;;2.00;;
6902;SDS011;20232;49.408;8.702;2023-11-18T14:01:52;2.97;;;2.10;;
6902;SDS011;20232;49.408;8.702;2023-11-18T14:04:22;6.40;;;2.00;;
6902;SDS011;20232;49.408;8.702;2023-11-18T14:06:51;6.87;;;2.30;;
6902;SDS011;20232;49.408;8.702;2023-11-18T14:09:20;3.37;;;1.90;;
6902;SDS011;20232;49.408;8.702;2023-11-18T14:11:50;3.70;;;1.90;;
6902;SDS011;20232;49.408;8.702;2023-11-18T14:14:16;5.70;;;2.20;;
6902;SDS011;20232;49.408;8.702;2023-11-18T14:16:43;5.33;;;2.07;;
6902;SDS011;20232;49.408;8.702;2023-11-18T14:19:08;3.27;;;2.40;;
6902;SDS011;20232;49.408;8.702;2023-11-18T14:21:34;3.43;;;2.40;;
6902;SDS011;20232;49.408;8.702;2023-11-18T14:23:59;4.03;;;2.80;;
6902;SDS011;20232;49.408;8.702;2023-11-18T14:26:28;3.80;;;2.93;;
6902;SDS011;20232;49.408;8.702;2023-11-18T14:28:56;4.53;;;3.10;;
6902;SDS011;20232;49.408;8.702;2023-11-18T14:31:22;4.97;;;3.10;;
6902;SDS011;20232;49.408;8.702;2023-11-18T14:33:47;4.00;;;2.90;;
6902;SDS011;20232;49.408;8.702;2023-11-18T14:36:13;3.60;;;3.30;;
6902;SDS011;20232;49.408;8.702;2023-11-18T14:38:40;4.77;;;3.17;;
6902;SDS011;20232;49.408;8.702;2023-11-18T14:41:05;3.80;;;3.00;;
6902;SDS011;20232;49.408;8.702;2023-11-18T14:43:32;5.03;;;2.83;;
6902;SDS011;20232;49.408;8.702;2023-11-18T14:45:58;5.00;;;3.77;;
6902;SDS011;20232;49.408;8.702;2023-11-18T14:48:24;4.57;;;3.03;;
6902;SDS011;20232;49.408;8.702;2023-11-18T14:50:50;6.37;;;2.80;;
6902;SDS011;20232;49.408;8.702;2023-11-18T14:53:15;3.60;;;2.60;;
6902;SDS011;20232;49.408;8.702;2023-11-18T14:55:40;4.07;;;2.83;;
6902;SDS011;20232;49.408;8.702;2023-11-18T14:58:07;3.83;;;2.70;;
6902;SDS011;20232;49.408;8.702;2023-11-18T15:00:32;3.40;;;2.67;;
6902;SDS011;20232;49.408;8.702;2023-11-18T15:02:58;3.73;;;2.73;;
6902;SDS011;20232;49.408;8.702;2023-11-18T15:05:23;3.73;;;2.83;;
6902;SDS011;20232;49.408;8.702;2023-11-18T15:07:49;5.43;;;2.70;;
6902;SDS011;20232;49.408;8.702;2023-11-18T15:10:19;3.07;;;2.60;;
6902;SDS011;20232;49.408;8.702;2023-11-18T15:12:50;2.60;;;2.40;;
6902;SDS011;20232;49.408;8.702;2023-11-18T15:15:23;5.77;;;2.60;;
6902;SDS011;20232;49.408;8.702;2023-11-18T15:17:56;3.23;;;2.63;;
6902;SDS011;20232;49.408;8.702;2023-11-18T15:20:23;2.80;;;2.60;;
6902;SDS011;20232;49.408;8.702;2023-11-18T15:22:49;4.90;;;2.80;;
6902;SDS011;20232;49.408;8.702;2023-11-18T15:25:14;2.50;;;2.30;;
6902;SDS011;20232;49.408;8.702;2023-11-18T15:27:42;2.50;;;2.30;;
6902;SDS011;20232;49.408;8.702;2023-11-18T15:30:10;3.77;;;2.77;;
6902;SDS011;20232;49.408;8.702;2023-11-18T15:32:37;4.07;;;2.30;;
6902;SDS011;20232;49.408;8.702;2023-11-18T15:35:04;3.53;;;2.93;;
6902;SDS011;20232;49.408;8.702;2023-11-18T15:37:33;5.97;;;2.67;;
6902;SDS011;20232;49.408;8.702;2023-11-18T15:40:03;6.13;;;2.50;;
6902;SDS011;20232;49.408;8.702;2023-11-18T15:42:40;4.83;;;3.03;;
6902;SDS011;20232;49.408;8.702;2023-11-18T15:45:12;4.60;;;3.80;;
6902;SDS011;20232;49.408;8.702;2023-11-18T15:47:40;4.97;;;2.60;;
6902;SDS011;20232;49.408;8.702;2023-11-18T15:50:07;3.60;;;2.90;;
6902;SDS011;20232;49.408;8.702;2023-11-18T15:52:37;4.87;;;3.53;;
6902;SDS011;20232;49.408;8.702;2023-11-18T15:55:03;5.23;;;3.07;;
6902;SDS011;20232;49.408;8.702;2023-11-18T15:57:37;3.73;;;3.40;;
6902;SDS011;20232;49.408;8.702;2023-11-18T16:00:04;4.23;;;3.00;;
6902;SDS011;20232;49.408;8.702;2023-11-18T16:02:31;2.60;;;2.40;;
6902;SDS011;20232;49.408;8.702;2023-11-18T16:04:57;2.70;;;2.50;;
6902;SDS011;20232;49.408;8.702;2023-11-18T16:07:22;2.60;;;2.37;;
6902;SDS011;20232;49.408;8.702;2023-11-18T16:09:48;6.60;;;2.37;;
6902;SDS011;20232;49.408;8.702;2023-11-18T16:12:13;2.80;;;2.60;;
6902;SDS011;20232;49.408;8.702;2023-11-18T16:14:39;3.43;;;3.07;;
6902;SDS011;20232;49.408;8.702;2023-11-18T16:17:05;3.17;;;2.90;;
6902;SDS011;20232;49.408;8.702;2023-11-18T16:19:32;5.53;;;3.60;;
6902;SDS011;20232;49.408;8.702;2023-11-18T16:21:58;4.87;;;3.87;;
6902;SDS011;20232;49.408;8.702;2023-11-18T16:24:25;5.30;;;4.10;;
6902;SDS011;20232;49.408;8.702;2023-11-18T16:26:50;4.53;;;3.87;;
6902;SDS011;20232;49.408;8.702;2023-11-18T16:29:16;6.53;;;3.90;;
6902;SDS011;20232;49.408;8.702;2023-11-18T16:31:42;6.17;;;5.13;;
6902;SDS011;20232;49.408;8.702;2023-11-18T16:34:08;5.53;;;4.57;;
6902;SDS011;20232;49.408;8.702;2023-11-18T16:36:34;7.53;;;5.10;;
6902;SDS011;20232;49.408;8.702;2023-11-18T16:39:00;4.80;;;4.30;;
6902;SDS011;20232;49.408;8.702;2023-11-18T16:41:26;6.33;;;4.73;;
6902;SDS011;20232;49.408;8.702;2023-11-18T16:43:51;5.60;;;5.10;;
6902;SDS011;20232;49.408;8.702;2023-11-18T16:46:17;8.60;;;5.87;;
6902;SDS011;20232;49.408;8.702;2023-11-18T16:48:42;8.00;;;5.60;;
6902;SDS011;20232;49.408;8.702;2023-11-18T16:51:08;6.30;;;5.43;;
6902;SDS011;20232;49.408;8.702;2023-11-18T16:53:33;5.87;;;4.70;;
6902;SDS011;20232;49.408;8.702;2023-11-18T16:55:59;6.47;;;4.70;;
6902;SDS011;20232;49.408;8.702;2023-11-18T16:58:24;5.43;;;4.70;;
6902;SDS011;20232;49.408;8.702;2023-11-18T17:00:50;9.57;;;5.57;;
6902;SDS011;20232;49.408;8.702;2023-11-18T17:03:17;6.27;;;5.00;;
6902;SDS011;20232;49.408;8.702;2023-11-18T17:05:43;4.27;;;3.80;;
6902;SDS011;20232;49.408;8.702;2023-11-18T17:08:08;6.77;;;4.57;;
6902;SDS011;20232;49.408;8.702;2023-11-18T17:10:35;6.17;;;3.90;;
6902;SDS011;20232;49.408;8.702;2023-11-18T17:13:01;4.33;;;3.90;;
6902;SDS011;20232;49.408;8.702;2023-11-18T17:15:26;4.53;;;3.70;;
6902;SDS011;20232;49.408;8.702;2023-11-18T17:17:53;4.90;;;4.10;;
6902;SDS011;20232;49.408;8.702;2023-11-18T17:20:25;4.10;;;3.70;;
6902;SDS011;20232;49.408;8.702;2023-11-18T17:22:52;6.47;;;4.13;;
6902;SDS011;20232;49.408;8.702;2023-11-18T17:25:17;5.43;;;4.60;;
6902;SDS011;20232;49.408;8.702;2023-11-18T17:27:44;5.27;;;4.33;;
6902;SDS011;20232;49.408;8.702;2023-11-18T17:30:11;6.10;;;4.80;;
6902;SDS011;20232;49.408;8.702;2023-11-18T17:32:41;6.50;;;5.00;;
6902;SDS011;20232;49.408;8.702;2023-11-18T17:35:07;5.77;;;5.03;;
6902;SDS011;20232;49.408;8.702;2023-11-18T17:37:34;9.20;;;5.70;;
6902;SDS011;20232;49.408;8.702;2023-11-18T17:40:00;8.53;;;6.73;;
6902;SDS011;20232;49.408;8.702;2023-11-18T17:42:26;8.03;;;6.80;;
6902;SDS011;20232;49.408;8.702;2023-11-18T17:44:51;10.93;;;6.77;;
6902;SDS011;20232;49.408;8.702;2023-11-18T17:47:17;9.97;;;6.90;;
6902;SDS011;20232;49.408;8.702;2023-11-18T17:49:42;7.70;;;6.40;;
6902;SDS011;20232;49.408;8.702;2023-11-18T17:52:08;7.77;;;6.07;;
6902;SDS011;20232;49.408;8.702;2023-11-18T17:54:34;7.23;;;6.53;;
6902;SDS011;20232;49.408;8.702;2023-11-18T17:57:00;7.40;;;5.60;;
6902;SDS011;20232;49.408;8.702;2023-11-18T17:59:25;6.80;;;5.40;;
6902;SDS011;20232;49.408;8.702;2023-11-18T18:01:51;8.53;;;5.97;;
6902;SDS011;20232;49.408;8.702;2023-11-18T18:04:18;8.47;;;5.40;;
6902;SDS011;20232;49.408;8.702;2023-11-18T18:06:44;6.67;;;4.90;;
6902;SDS011;20232;49.408;8.702;2023-11-18T18:09:09;7.63;;;5.97;;
6902;SDS011;20232;49.408;8.702;2023-11-18T18:11:35;7.23;;;5.80;;
6902;SDS011;20232;49.408;8.702;2023-11-18T18:14:00;7.97;;;5.60;;
6902;SDS011;20232;49.408;8.702;2023-11-18T18:16:26;5.93;;;5.33;;
6902;SDS011;20232;49.408;8.702;2023-11-18T18:18:51;6.03;;;5.33;;
6902;SDS011;20232;49.408;8.702;2023-11-18T18:21:17;5.07;;;4.37;;
6902;SDS011;20232;49.408;8.702;2023-11-18T18:23:42;10.90;;;5.13;;
6902;SDS011;20232;49.408;8.702;2023-11-18T18:26:07;9.40;;;5.67;;
6902;SDS011;20232;49.408;8.702;2023-11-18T18:28:33;7.27;;;5.53;;
6902;SDS011;20232;49.408;8.702;2023-11-18T18:30:58;6.93;;;5.27;;
6902;SDS011;20232;49.408;8.702;2023-11-18T18:33:24;6.87;;;5.23;;
6902;SDS011;20232;49.408;8.702;2023-11-18T18:35:50;6.93;;;5.30;;
6902;SDS011;20232;49.408;8.702;2023-11-18T18:38:15;6.33;;;5.67;;
6902;SDS011;20232;49.408;8.702;2023-11-18T18:40:40;7.20;;;5.33;;
6902;SDS011;20232;49.408;8.702;2023-11-18T18:43:06;7.30;;;4.93;;
6902;SDS011;20232;49.408;8.702;2023-11-18T18:45:32;6.27;;;4.87;;
6902;SDS011;20232;49.408;8.702;2023-11-18T18:47:58;7.13;;;5.67;;
6902;SDS011;20232;49.408;8.702;2023-11-18T18:50:24;6.70;;;5.37;;
6902;SDS011;20232;49.408;8.702;2023-11-18T18:52:50;9.00;;;5.43;;
6902;SDS011;20232;49.408;8.702;2023-11-18T18:55:16;6.00;;;5.40;;
6902;SDS011;20232;49.408;8.702;2023-11-18T18:57:41;6.27;;;5.43;;
6902;SDS011;20232;49.408;8.702;2023-11-18T19:00:07;6.07;;;5.53;;
6902;SDS011;20232;49.408;8.702;2023-11-18T19:02:37;6.00;;;5.40;;
6902;SDS011;20232;49.408;8.702;2023-11-18T19:05:03;7.80;;;5.57;;
6902;SDS011;20232;49.408;8.702;2023-11-18T19:07:29;7.27;;;5.60;;
6902;SDS011;20232;49.408;8.702;2023-11-18T19:09:57;6.53;;;5.70;;
6902;SDS011;20232;49.408;8.702;2023-11-18T19:12:22;6.87;;;5.30;;
6902;SDS011;20232;49.408;8.702;2023-11-18T19:14:48;8.07;;;5.87;;
6902;SDS011;20232;49.408;8.702;2023-11-18T19:17:13;6.60;;;5.90;;
6902;SDS011;20232;49.408;8.702;2023-11-18T19:19:39;9.60;;;7.53;;
6902;SDS011;20232;49.408;8.702;2023-11-18T19:22:04;6.43;;;5.73;;
6902;SDS011;20232;49.408;8.702;2023-11-18T19:24:31;7.43;;;6.23;;
6902;SDS011;20232;49.408;8.702;2023-11-18T19:26:57;6.20;;;5.50;;
6902;SDS011;20232;49.408;8.702;2023-11-18T19:29:23;8.17;;;5.43;;
6902;SDS011;20232;49.408;8.702;2023-11-18T19:31:48;7.10;;;5.63;;
6902;SDS011;20232;49.408;8.702;2023-11-18T19:34:14;6.33;;;4.93;;
6902;SDS011;20232;49.408;8.702;2023-11-18T19:36:39;7.20;;;6.50;;
6902;SDS011;20232;49.408;8.702;2023-11-18T19:39:06;6.83;;;6.07;;
6902;SDS011;20232;49.408;8.702;2023-11-18T19:41:33;6.73;;;6.10;;
6902;SDS011;20232;49.408;8.702;2023-11-18T19:43:58;9.40;;;7.30;;
6902;SDS011;20232;49.408;8.702;2023-11-18T19:46:24;6.87;;;6.17;;
6902;SDS011;20232;49.408;8.702;2023-11-18T19:48:49;7.93;;;5.50;;
6902;SDS011;20232;49.408;8.702;2023-11-18T19:51:15;8.10;;;5.40;;
6902;SDS011;20232;49.408;8.702;2023-11-18T19:53:41;5.53;;;4.50;;
6902;SDS011;20232;49.408;8.702;2023-11-18T19:56:06;5.67;;;4.60;;
6902;SDS011;20232;49.408;8.702;2023-11-18T19:58:32;6.20;;;4.30;;
6902;SDS011;20232;49.408;8.702;2023-11-18T20:00:57;6.07;;;3.50;;
6902;SDS011;20232;49.408;8.702;2023-11-18T20:03:23;4.30;;;3.60;;
6902;SDS011;20232;49.408;8.702;2023-11-18T20:05:48;4.43;;;4.00;;
6902;SDS011;20232;49.408;8.702;2023-11-18T20:08:14;3.97;;;3.43;;
6902;SDS011;20232;49.408;8.702;2023-11-18T20:10:42;5.07;;;4.00;;
6902;SDS011;20232;49.408;8.702;2023-11-18T20:13:08;4.00;;;3.60;;